sensor_id;sensor_type;location;lat;lon;timestamp;P1;durP1;ratioP1;P2;durP2;ratioP2
17662;SDS011;8950;56.892;15.090;2022-11-10T00:00:28;3.83;;;2.50;;
17662;SDS011;8950;56.892;15.090;2022-11-10T00:02:55;6.85;;;2.65;;
17662;SDS011;8950;56.892;15.090;2022-11-10T00:05:25;3.80;;;2.65;;
17662;SDS011;8950;56.892;15.090;2022-11-10T00:07:52;5.93;;;2.63;;
17662;SDS011;8950;56.892;15.090;2022-11-10T00:10:19;4.07;;;2.38;;
17662;SDS011;8950;56.892;15.090;2022-11-10T00:12:45;5.22;;;2.72;;
17662;SDS011;8950;56.892;15.090;2022-11-10T00:15:12;4.55;;;2.63;;
17662;SDS011;8950;56.892;15.090;2022-11-10T00:17:55;3.72;;;2.28;;
17662;SDS011;8950;56.892;15.090;2022-11-10T00:20:22;6.43;;;2.53;;
17662;SDS011;8950;56.892;15.090;2022-11-10T00:22:48;5.63;;;3.05;;
17662;SDS011;8950;56.892;15.090;2022-11-10T00:25:16;6.93;;;2.58;;
17662;SDS011;8950;56.892;15.090;2022-11-10T00:27:42;2.92;;;2.17;;
17662;SDS011;8950;56.892;15.090;2022-11-10T00:30:09;4.82;;;2.72;;
17662;SDS011;8950;56.892;15.090;2022-11-10T00:32:36;4.35;;;2.40;;
17662;SDS011;8950;56.892;15.090;2022-11-10T00:35:02;4.85;;;2.80;;
17662;SDS011;8950;56.892;15.090;2022-11-10T00:37:29;5.20;;;2.65;;
17662;SDS011;8950;56.892;15.090;2022-11-10T00:39:55;5.22;;;2.10;;
17662;SDS011;8950;56.892;15.090;2022-11-10T00:42:23;5.75;;;2.55;;
17662;SDS011;8950;56.892;15.090;2022-11-10T00:44:50;4.25;;;2.40;;
17662;SDS011;8950;56.892;15.090;2022-11-10T00:47:16;4.82;;;2.83;;
17662;SDS011;8950;56.892;15.090;2022-11-10T00:49:42;6.97;;;2.47;;
17662;SDS011;8950;56.892;15.090;2022-11-10T00:52:09;5.90;;;2.70;;
17662;SDS011;8950;56.892;15.090;2022-11-10T00:54:35;5.43;;;2.33;;
17662;SDS011;8950;56.892;15.090;2022-11-10T00:57:02;4.82;;;2.63;;
17662;SDS011;8950;56.892;15.090;2022-11-10T00:59:29;6.10;;;2.40;;
17662;SDS011;8950;56.892;15.090;2022-11-10T01:01:56;4.18;;;2.13;;
17662;SDS011;8950;56.892;15.090;2022-11-10T01:04:22;5.53;;;2.40;;
17662;SDS011;8950;56.892;15.090;2022-11-10T01:06:49;4.40;;;2.33;;
17662;SDS011;8950;56.892;15.090;2022-11-10T01:09:16;3.45;;;2.33;;
17662;SDS011;8950;56.892;15.090;2022-11-10T01:11:43;5.32;;;2.22;;
17662;SDS011;8950;56.892;15.090;2022-11-10T01:14:09;4.97;;;2.20;;
17662;SDS011;8950;56.892;15.090;2022-11-10T01:16:37;3.28;;;2.40;;
17662;SDS011;8950;56.892;15.090;2022-11-10T01:19:03;3.83;;;2.40;;
17662;SDS011;8950;56.892;15.090;2022-11-10T01:21:30;4.10;;;2.50;;
17662;SDS011;8950;56.892;15.090;2022-11-10T01:23:56;5.72;;;2.33;;
17662;SDS011;8950;56.892;15.090;2022-11-10T01:26:23;5.88;;;2.55;;
17662;SDS011;8950;56.892;15.090;2022-11-10T01:28:49;4.22;;;2.67;;
17662;SDS011;8950;56.892;15.090;2022-11-10T01:31:16;2.45;;;2.15;;
17662;SDS011;8950;56.892;15.090;2022-11-10T01:33:44;4.53;;;2.47;;
17662;SDS011;8950;56.892;15.090;2022-11-10T01:36:11;5.30;;;2.97;;
17662;SDS011;8950;56.892;15.090;2022-11-10T01:38:39;4.60;;;2.83;;
17662;SDS011;8950;56.892;15.090;2022-11-10T01:41:06;4.90;;;2.78;;
17662;SDS011;8950;56.892;15.090;2022-11-10T01:43:33;4.45;;;2.55;;
17662;SDS011;8950;56.892;15.090;2022-11-10T01:46:00;5.47;;;2.92;;
17662;SDS011;8950;56.892;15.090;2022-11-10T01:48:28;5.78;;;3.13;;
17662;SDS011;8950;56.892;15.090;2022-11-10T01:50:58;3.25;;;2.63;;
17662;SDS011;8950;56.892;15.090;2022-11-10T01:53:26;3.33;;;2.42;;
17662;SDS011;8950;56.892;15.090;2022-11-10T01:55:54;4.88;;;2.58;;
17662;SDS011;8950;56.892;15.090;2022-11-10T01:58:22;4.95;;;2.95;;
17662;SDS011;8950;56.892;15.090;2022-11-10T02:00:50;4.40;;;2.78;;
17662;SDS011;8950;56.892;15.090;2022-11-10T02:03:18;5.00;;;2.63;;
17662;SDS011;8950;56.892;15.090;2022-11-10T02:05:46;3.47;;;2.60;;
17662;SDS011;8950;56.892;15.090;2022-11-10T02:08:15;3.60;;;2.67;;
17662;SDS011;8950;56.892;15.090;2022-11-10T02:10:43;4.18;;;2.72;;
17662;SDS011;8950;56.892;15.090;2022-11-10T02:13:09;4.05;;;2.78;;
17662;SDS011;8950;56.892;15.090;2022-11-10T02:15:36;4.35;;;2.45;;
17662;SDS011;8950;56.892;15.090;2022-11-10T02:18:03;3.42;;;2.30;;
17662;SDS011;8950;56.892;15.090;2022-11-10T02:20:29;5.90;;;2.40;;
17662;SDS011;8950;56.892;15.090;2022-11-10T02:22:57;3.00;;;2.30;;
17662;SDS011;8950;56.892;15.090;2022-11-10T02:25:24;4.30;;;2.60;;
17662;SDS011;8950;56.892;15.090;2022-11-10T02:27:53;5.55;;;2.42;;
17662;SDS011;8950;56.892;15.090;2022-11-10T02:30:19;3.67;;;2.47;;
17662;SDS011;8950;56.892;15.090;2022-11-10T02:32:45;5.03;;;2.33;;
17662;SDS011;8950;56.892;15.090;2022-11-10T02:35:12;4.00;;;2.38;;
17662;SDS011;8950;56.892;15.090;2022-11-10T02:37:38;3.65;;;2.45;;
17662;SDS011;8950;56.892;15.090;2022-11-10T02:40:07;3.97;;;2.38;;
17662;SDS011;8950;56.892;15.090;2022-11-10T02:42:34;3.63;;;2.40;;
17662;SDS011;8950;56.892;15.090;2022-11-10T02:45:00;3.10;;;2.20;;
17662;SDS011;8950;56.892;15.090;2022-11-10T02:47:27;5.13;;;2.45;;
17662;SDS011;8950;56.892;15.090;2022-11-10T02:49:53;4.60;;;2.50;;
17662;SDS011;8950;56.892;15.090;2022-11-10T02:52:19;4.13;;;2.40;;
17662;SDS011;8950;56.892;15.090;2022-11-10T02:54:46;4.72;;;2.47;;
17662;SDS011;8950;56.892;15.090;2022-11-10T02:57:14;3.53;;;2.80;;
17662;SDS011;8950;56.892;15.090;2022-11-10T02:59:40;4.50;;;2.58;;
17662;SDS011;8950;56.892;15.090;2022-11-10T03:02:06;4.95;;;2.55;;
17662;SDS011;8950;56.892;15.090;2022-11-10T03:04:33;3.15;;;2.38;;
17662;SDS011;8950;56.892;15.090;2022-11-10T03:06:59;3.38;;;2.47;;
17662;SDS011;8950;56.892;15.090;2022-11-10T03:09:26;4.93;;;2.65;;
17662;SDS011;8950;56.892;15.090;2022-11-10T03:11:52;3.65;;;2.33;;
17662;SDS011;8950;56.892;15.090;2022-11-10T03:14:20;4.15;;;2.47;;
17662;SDS011;8950;56.892;15.090;2022-11-10T03:16:46;3.95;;;2.33;;
17662;SDS011;8950;56.892;15.090;2022-11-10T03:19:13;3.90;;;2.55;;
17662;SDS011;8950;56.892;15.090;2022-11-10T03:21:39;5.22;;;2.80;;
17662;SDS011;8950;56.892;15.090;2022-11-10T03:24:05;3.80;;;2.35;;
17662;SDS011;8950;56.892;15.090;2022-11-10T03:26:32;3.28;;;2.50;;
17662;SDS011;8950;56.892;15.090;2022-11-10T03:28:58;3.10;;;2.47;;
17662;SDS011;8950;56.892;15.090;2022-11-10T03:31:26;3.30;;;2.58;;
17662;SDS011;8950;56.892;15.090;2022-11-10T03:33:52;3.83;;;2.38;;
17662;SDS011;8950;56.892;15.090;2022-11-10T03:36:19;3.72;;;2.45;;
17662;SDS011;8950;56.892;15.090;2022-11-10T03:38:45;5.13;;;2.17;;
17662;SDS011;8950;56.892;15.090;2022-11-10T03:41:12;5.22;;;2.20;;
17662;SDS011;8950;56.892;15.090;2022-11-10T03:43:38;2.08;;;1.88;;
17662;SDS011;8950;56.892;15.090;2022-11-10T03:46:05;2.90;;;1.90;;
17662;SDS011;8950;56.892;15.090;2022-11-10T03:48:32;2.67;;;2.08;;
17662;SDS011;8950;56.892;15.090;2022-11-10T03:50:59;4.72;;;2.13;;
17662;SDS011;8950;56.892;15.090;2022-11-10T03:53:25;2.35;;;2.13;;
17662;SDS011;8950;56.892;15.090;2022-11-10T03:55:52;3.80;;;1.90;;
17662;SDS011;8950;56.892;15.090;2022-11-10T03:58:18;5.32;;;2.00;;
17662;SDS011;8950;56.892;15.090;2022-11-10T04:00:44;2.95;;;1.80;;
17662;SDS011;8950;56.892;15.090;2022-11-10T04:03:11;4.20;;;2.08;;
17662;SDS011;8950;56.892;15.090;2022-11-10T04:05:38;4.03;;;1.65;;
17662;SDS011;8950;56.892;15.090;2022-11-10T04:08:22;1.60;;;1.45;;
17662;SDS011;8950;56.892;15.090;2022-11-10T04:11:06;2.35;;;1.50;;
17662;SDS011;8950;56.892;15.090;2022-11-10T04:13:33;3.97;;;1.70;;
17662;SDS011;8950;56.892;15.090;2022-11-10T04:16:17;1.52;;;1.40;;
17662;SDS011;8950;56.892;15.090;2022-11-10T04:18:43;2.58;;;1.50;;
17662;SDS011;8950;56.892;15.090;2022-11-10T04:21:11;2.53;;;1.60;;
17662;SDS011;8950;56.892;15.090;2022-11-10T04:23:37;1.50;;;1.33;;
17662;SDS011;8950;56.892;15.090;2022-11-10T04:26:05;1.95;;;1.58;;
17662;SDS011;8950;56.892;15.090;2022-11-10T04:28:49;2.13;;;1.50;;
17662;SDS011;8950;56.892;15.090;2022-11-10T04:31:17;2.50;;;1.38;;
17662;SDS011;8950;56.892;15.090;2022-11-10T04:33:44;1.95;;;1.50;;
17662;SDS011;8950;56.892;15.090;2022-11-10T04:36:12;1.58;;;1.20;;
17662;SDS011;8950;56.892;15.090;2022-11-10T04:38:39;1.70;;;1.40;;
17662;SDS011;8950;56.892;15.090;2022-11-10T04:41:05;1.50;;;1.40;;
17662;SDS011;8950;56.892;15.090;2022-11-10T04:43:32;1.45;;;1.35;;
17662;SDS011;8950;56.892;15.090;2022-11-10T04:45:59;1.95;;;1.45;;
17662;SDS011;8950;56.892;15.090;2022-11-10T04:48:25;1.75;;;1.38;;
17662;SDS011;8950;56.892;15.090;2022-11-10T04:50:52;2.53;;;1.50;;
17662;SDS011;8950;56.892;15.090;2022-11-10T04:53:20;1.30;;;1.20;;
17662;SDS011;8950;56.892;15.090;2022-11-10T04:55:47;1.85;;;1.35;;
17662;SDS011;8950;56.892;15.090;2022-11-10T04:58:14;3.22;;;1.20;;
17662;SDS011;8950;56.892;15.090;2022-11-10T05:00:40;2.03;;;1.38;;
17662;SDS011;8950;56.892;15.090;2022-11-10T05:03:08;2.22;;;1.67;;
17662;SDS011;8950;56.892;15.090;2022-11-10T05:05:34;1.45;;;1.27;;
17662;SDS011;8950;56.892;15.090;2022-11-10T05:08:01;1.92;;;1.02;;
17662;SDS011;8950;56.892;15.090;2022-11-10T05:10:30;1.30;;;1.10;;
17662;SDS011;8950;56.892;15.090;2022-11-10T05:12:56;1.27;;;1.10;;
17662;SDS011;8950;56.892;15.090;2022-11-10T05:15:23;1.63;;;1.10;;
17662;SDS011;8950;56.892;15.090;2022-11-10T05:17:50;1.23;;;1.00;;
17662;SDS011;8950;56.892;15.090;2022-11-10T05:20:17;1.00;;;1.00;;
17662;SDS011;8950;56.892;15.090;2022-11-10T05:22:44;2.72;;;1.17;;
17662;SDS011;8950;56.892;15.090;2022-11-10T05:25:32;0.88;;;0.88;;
17662;SDS011;8950;56.892;15.090;2022-11-10T05:27:59;1.05;;;1.00;;
17662;SDS011;8950;56.892;15.090;2022-11-10T05:30:25;0.95;;;0.95;;
17662;SDS011;8950;56.892;15.090;2022-11-10T05:32:52;0.88;;;0.80;;
17662;SDS011;8950;56.892;15.090;2022-11-10T05:35:18;0.98;;;0.98;;
17662;SDS011;8950;56.892;15.090;2022-11-10T05:37:45;1.00;;;1.00;;
17662;SDS011;8950;56.892;15.090;2022-11-10T05:40:11;0.80;;;0.80;;
17662;SDS011;8950;56.892;15.090;2022-11-10T05:42:43;0.77;;;0.77;;
17662;SDS011;8950;56.892;15.090;2022-11-10T05:45:09;1.17;;;0.90;;
17662;SDS011;8950;56.892;15.090;2022-11-10T05:47:36;1.50;;;0.95;;
17662;SDS011;8950;56.892;15.090;2022-11-10T05:50:02;1.08;;;0.73;;
17662;SDS011;8950;56.892;15.090;2022-11-10T05:52:29;0.70;;;0.70;;
17662;SDS011;8950;56.892;15.090;2022-11-10T05:54:55;3.10;;;1.00;;
17662;SDS011;8950;56.892;15.090;2022-11-10T05:57:21;1.13;;;1.02;;
17662;SDS011;8950;56.892;15.090;2022-11-10T05:59:49;1.73;;;1.08;;
17662;SDS011;8950;56.892;15.090;2022-11-10T06:02:16;1.27;;;1.15;;
17662;SDS011;8950;56.892;15.090;2022-11-10T06:04:42;1.48;;;1.10;;
17662;SDS011;8950;56.892;15.090;2022-11-10T06:07:08;1.52;;;1.25;;
17662;SDS011;8950;56.892;15.090;2022-11-10T06:09:36;1.38;;;1.15;;
17662;SDS011;8950;56.892;15.090;2022-11-10T06:12:02;1.20;;;1.00;;
17662;SDS011;8950;56.892;15.090;2022-11-10T06:14:29;1.13;;;1.00;;
17662;SDS011;8950;56.892;15.090;2022-11-10T06:16:57;1.27;;;1.10;;
17662;SDS011;8950;56.892;15.090;2022-11-10T06:19:23;4.05;;;1.40;;
17662;SDS011;8950;56.892;15.090;2022-11-10T06:21:50;1.77;;;1.13;;
17662;SDS011;8950;56.892;15.090;2022-11-10T06:24:16;2.20;;;1.15;;
17662;SDS011;8950;56.892;15.090;2022-11-10T06:26:43;3.03;;;1.30;;
17662;SDS011;8950;56.892;15.090;2022-11-10T06:29:09;2.03;;;1.10;;
17662;SDS011;8950;56.892;15.090;2022-11-10T06:31:35;2.85;;;1.30;;
17662;SDS011;8950;56.892;15.090;2022-11-10T06:34:03;2.40;;;1.40;;
17662;SDS011;8950;56.892;15.090;2022-11-10T06:36:30;2.75;;;1.42;;
17662;SDS011;8950;56.892;15.090;2022-11-10T06:38:56;1.17;;;1.10;;
17662;SDS011;8950;56.892;15.090;2022-11-10T06:41:23;2.35;;;1.27;;
17662;SDS011;8950;56.892;15.090;2022-11-10T06:43:49;3.80;;;1.40;;
17662;SDS011;8950;56.892;15.090;2022-11-10T06:46:15;1.95;;;1.30;;
17662;SDS011;8950;56.892;15.090;2022-11-10T06:48:42;4.50;;;1.67;;
17662;SDS011;8950;56.892;15.090;2022-11-10T06:51:10;2.50;;;1.42;;
17662;SDS011;8950;56.892;15.090;2022-11-10T06:53:37;2.42;;;1.40;;
17662;SDS011;8950;56.892;15.090;2022-11-10T06:56:06;3.95;;;1.88;;
17662;SDS011;8950;56.892;15.090;2022-11-10T06:58:33;2.20;;;1.33;;
17662;SDS011;8950;56.892;15.090;2022-11-10T07:01:00;3.58;;;1.40;;
17662;SDS011;8950;56.892;15.090;2022-11-10T07:03:26;4.18;;;1.50;;
17662;SDS011;8950;56.892;15.090;2022-11-10T07:05:53;3.15;;;1.30;;
17662;SDS011;8950;56.892;15.090;2022-11-10T07:08:20;2.45;;;1.23;;
17662;SDS011;8950;56.892;15.090;2022-11-10T07:10:50;1.95;;;1.45;;
17662;SDS011;8950;56.892;15.090;2022-11-10T07:13:16;2.58;;;1.40;;
17662;SDS011;8950;56.892;15.090;2022-11-10T07:15:43;2.92;;;1.48;;
17662;SDS011;8950;56.892;15.090;2022-11-10T07:18:10;1.55;;;1.10;;
17662;SDS011;8950;56.892;15.090;2022-11-10T07:20:36;2.28;;;1.60;;
17662;SDS011;8950;56.892;15.090;2022-11-10T07:23:03;2.40;;;1.30;;
17662;SDS011;8950;56.892;15.090;2022-11-10T07:25:31;4.93;;;1.50;;
17662;SDS011;8950;56.892;15.090;2022-11-10T07:28:00;2.47;;;1.30;;
17662;SDS011;8950;56.892;15.090;2022-11-10T07:30:26;1.35;;;1.20;;
17662;SDS011;8950;56.892;15.090;2022-11-10T07:32:57;2.92;;;1.23;;
17662;SDS011;8950;56.892;15.090;2022-11-10T07:35:24;2.20;;;1.40;;
17662;SDS011;8950;56.892;15.090;2022-11-10T07:37:52;2.75;;;1.30;;
17662;SDS011;8950;56.892;15.090;2022-11-10T07:40:19;1.58;;;1.23;;
17662;SDS011;8950;56.892;15.090;2022-11-10T07:42:46;1.42;;;1.20;;
17662;SDS011;8950;56.892;15.090;2022-11-10T07:45:13;1.92;;;1.30;;
17662;SDS011;8950;56.892;15.090;2022-11-10T07:47:39;2.70;;;1.48;;
17662;SDS011;8950;56.892;15.090;2022-11-10T07:50:06;2.28;;;1.50;;
17662;SDS011;8950;56.892;15.090;2022-11-10T07:52:32;1.95;;;1.35;;
17662;SDS011;8950;56.892;15.090;2022-11-10T07:54:59;2.67;;;1.50;;
17662;SDS011;8950;56.892;15.090;2022-11-10T07:57:26;3.65;;;1.70;;
17662;SDS011;8950;56.892;15.090;2022-11-10T07:59:54;3.08;;;1.60;;
17662;SDS011;8950;56.892;15.090;2022-11-10T08:02:20;4.97;;;1.52;;
17662;SDS011;8950;56.892;15.090;2022-11-10T08:04:46;3.80;;;1.67;;
17662;SDS011;8950;56.892;15.090;2022-11-10T08:07:13;3.75;;;1.90;;
17662;SDS011;8950;56.892;15.090;2022-11-10T08:09:39;4.85;;;1.85;;
17662;SDS011;8950;56.892;15.090;2022-11-10T08:12:06;4.07;;;1.95;;
17662;SDS011;8950;56.892;15.090;2022-11-10T08:14:32;4.72;;;1.90;;
17662;SDS011;8950;56.892;15.090;2022-11-10T08:17:00;3.30;;;1.70;;
17662;SDS011;8950;56.892;15.090;2022-11-10T08:19:27;2.47;;;1.90;;
17662;SDS011;8950;56.892;15.090;2022-11-10T08:21:53;5.53;;;2.08;;
17662;SDS011;8950;56.892;15.090;2022-11-10T08:24:19;5.25;;;2.15;;
17662;SDS011;8950;56.892;15.090;2022-11-10T08:26:46;5.88;;;2.05;;
17662;SDS011;8950;56.892;15.090;2022-11-10T08:29:12;3.20;;;1.70;;
17662;SDS011;8950;56.892;15.090;2022-11-10T08:31:39;3.40;;;1.80;;
17662;SDS011;8950;56.892;15.090;2022-11-10T08:34:07;5.28;;;2.03;;
17662;SDS011;8950;56.892;15.090;2022-11-10T08:36:33;3.70;;;2.08;;
17662;SDS011;8950;56.892;15.090;2022-11-10T08:39:01;6.40;;;2.28;;
17662;SDS011;8950;56.892;15.090;2022-11-10T08:41:28;4.35;;;1.90;;
17662;SDS011;8950;56.892;15.090;2022-11-10T08:43:54;6.25;;;2.13;;
17662;SDS011;8950;56.892;15.090;2022-11-10T08:46:20;7.85;;;2.40;;
17662;SDS011;8950;56.892;15.090;2022-11-10T08:48:47;4.07;;;2.20;;
17662;SDS011;8950;56.892;15.090;2022-11-10T08:51:14;5.22;;;1.90;;
17662;SDS011;8950;56.892;15.090;2022-11-10T08:53:41;5.63;;;1.80;;
17662;SDS011;8950;56.892;15.090;2022-11-10T08:56:07;5.85;;;2.10;;
17662;SDS011;8950;56.892;15.090;2022-11-10T08:58:35;7.57;;;2.25;;
17662;SDS011;8950;56.892;15.090;2022-11-10T09:01:06;7.20;;;2.08;;
17662;SDS011;8950;56.892;15.090;2022-11-10T09:03:32;5.93;;;2.00;;
17662;SDS011;8950;56.892;15.090;2022-11-10T09:05:59;5.53;;;2.17;;
17662;SDS011;8950;56.892;15.090;2022-11-10T09:08:27;5.53;;;2.13;;
17662;SDS011;8950;56.892;15.090;2022-11-10T09:10:54;5.65;;;2.33;;
17662;SDS011;8950;56.892;15.090;2022-11-10T09:13:20;5.38;;;2.30;;
17662;SDS011;8950;56.892;15.090;2022-11-10T09:15:47;5.90;;;2.28;;
17662;SDS011;8950;56.892;15.090;2022-11-10T09:18:13;5.65;;;2.15;;
17662;SDS011;8950;56.892;15.090;2022-11-10T09:20:41;8.38;;;2.80;;
17662;SDS011;8950;56.892;15.090;2022-11-10T09:23:08;4.95;;;2.58;;
17662;SDS011;8950;56.892;15.090;2022-11-10T09:25:37;7.03;;;2.75;;
17662;SDS011;8950;56.892;15.090;2022-11-10T09:28:03;6.85;;;2.33;;
17662;SDS011;8950;56.892;15.090;2022-11-10T09:30:30;5.82;;;2.40;;
17662;SDS011;8950;56.892;15.090;2022-11-10T09:32:57;7.40;;;2.40;;
17662;SDS011;8950;56.892;15.090;2022-11-10T09:35:25;6.43;;;2.20;;
17662;SDS011;8950;56.892;15.090;2022-11-10T09:37:52;7.13;;;2.13;;
17662;SDS011;8950;56.892;15.090;2022-11-10T09:40:19;8.55;;;2.55;;
17662;SDS011;8950;56.892;15.090;2022-11-10T09:42:48;6.95;;;2.50;;
17662;SDS011;8950;56.892;15.090;2022-11-10T09:45:20;5.80;;;2.50;;
17662;SDS011;8950;56.892;15.090;2022-11-10T09:47:49;8.55;;;2.70;;
17662;SDS011;8950;56.892;15.090;2022-11-10T09:50:21;7.63;;;2.47;;
17662;SDS011;8950;56.892;15.090;2022-11-10T09:52:52;6.57;;;2.22;;
17662;SDS011;8950;56.892;15.090;2022-11-10T09:55:21;10.40;;;3.00;;
17662;SDS011;8950;56.892;15.090;2022-11-10T09:57:53;10.77;;;2.95;;
17662;SDS011;8950;56.892;15.090;2022-11-10T10:00:21;7.43;;;2.67;;
17662;SDS011;8950;56.892;15.090;2022-11-10T10:02:49;7.53;;;2.85;;
17662;SDS011;8950;56.892;15.090;2022-11-10T10:05:23;8.68;;;2.78;;
17662;SDS011;8950;56.892;15.090;2022-11-10T10:07:55;7.22;;;2.70;;
17662;SDS011;8950;56.892;15.090;2022-11-10T10:10:26;6.53;;;2.60;;
17662;SDS011;8950;56.892;15.090;2022-11-10T10:13:02;6.63;;;2.67;;
17662;SDS011;8950;56.892;15.090;2022-11-10T10:15:32;5.95;;;2.45;;
17662;SDS011;8950;56.892;15.090;2022-11-10T10:18:13;8.32;;;2.40;;
17662;SDS011;8950;56.892;15.090;2022-11-10T10:20:42;8.80;;;2.75;;
17662;SDS011;8950;56.892;15.090;2022-11-10T10:23:13;5.78;;;2.58;;
17662;SDS011;8950;56.892;15.090;2022-11-10T10:25:41;7.22;;;2.50;;
17662;SDS011;8950;56.892;15.090;2022-11-10T10:28:13;7.68;;;2.53;;
17662;SDS011;8950;56.892;15.090;2022-11-10T10:30:40;9.55;;;2.97;;
17662;SDS011;8950;56.892;15.090;2022-11-10T10:33:11;8.95;;;2.97;;
17662;SDS011;8950;56.892;15.090;2022-11-10T10:35:38;8.32;;;3.30;;
17662;SDS011;8950;56.892;15.090;2022-11-10T10:38:08;9.73;;;2.80;;
17662;SDS011;8950;56.892;15.090;2022-11-10T10:40:41;8.50;;;3.08;;
17662;SDS011;8950;56.892;15.090;2022-11-10T10:43:07;6.90;;;2.75;;
17662;SDS011;8950;56.892;15.090;2022-11-10T10:45:35;11.00;;;2.60;;
17662;SDS011;8950;56.892;15.090;2022-11-10T10:48:15;10.77;;;3.22;;
17662;SDS011;8950;56.892;15.090;2022-11-10T10:50:46;7.15;;;2.45;;
17662;SDS011;8950;56.892;15.090;2022-11-10T10:53:15;7.28;;;2.47;;
17662;SDS011;8950;56.892;15.090;2022-11-10T10:55:45;7.32;;;2.67;;
17662;SDS011;8950;56.892;15.090;2022-11-10T10:58:17;14.70;;;3.50;;
17662;SDS011;8950;56.892;15.090;2022-11-10T11:00:46;9.45;;;2.78;;
17662;SDS011;8950;56.892;15.090;2022-11-10T11:03:18;8.10;;;2.70;;
17662;SDS011;8950;56.892;15.090;2022-11-10T11:05:57;8.20;;;2.92;;
17662;SDS011;8950;56.892;15.090;2022-11-10T11:08:24;7.35;;;2.75;;
17662;SDS011;8950;56.892;15.090;2022-11-10T11:10:51;8.98;;;2.95;;
17662;SDS011;8950;56.892;15.090;2022-11-10T11:13:19;10.75;;;3.10;;
17662;SDS011;8950;56.892;15.090;2022-11-10T11:15:56;8.98;;;2.95;;
17662;SDS011;8950;56.892;15.090;2022-11-10T11:18:22;9.32;;;3.03;;
17662;SDS011;8950;56.892;15.090;2022-11-10T11:20:51;9.93;;;2.75;;
17662;SDS011;8950;56.892;15.090;2022-11-10T11:23:24;8.57;;;2.45;;
17662;SDS011;8950;56.892;15.090;2022-11-10T11:25:57;8.38;;;2.63;;
17662;SDS011;8950;56.892;15.090;2022-11-10T11:28:28;7.38;;;2.70;;
17662;SDS011;8950;56.892;15.090;2022-11-10T11:31:00;8.38;;;3.00;;
17662;SDS011;8950;56.892;15.090;2022-11-10T11:33:32;8.40;;;2.95;;
17662;SDS011;8950;56.892;15.090;2022-11-10T11:36:02;9.75;;;3.10;;
17662;SDS011;8950;56.892;15.090;2022-11-10T11:38:30;7.60;;;2.70;;
17662;SDS011;8950;56.892;15.090;2022-11-10T11:41:00;9.65;;;3.08;;
17662;SDS011;8950;56.892;15.090;2022-11-10T11:46:15;9.77;;;3.13;;
17662;SDS011;8950;56.892;15.090;2022-11-10T11:48:45;11.82;;;2.95;;
17662;SDS011;8950;56.892;15.090;2022-11-10T11:51:17;7.45;;;2.30;;
17662;SDS011;8950;56.892;15.090;2022-11-10T11:53:52;8.38;;;2.65;;
17662;SDS011;8950;56.892;15.090;2022-11-10T11:56:23;7.82;;;3.17;;
17662;SDS011;8950;56.892;15.090;2022-11-10T11:58:53;8.65;;;2.70;;
17662;SDS011;8950;56.892;15.090;2022-11-10T12:01:27;6.93;;;2.67;;
17662;SDS011;8950;56.892;15.090;2022-11-10T12:06:40;10.23;;;2.70;;
17662;SDS011;8950;56.892;15.090;2022-11-10T12:09:13;7.65;;;3.08;;
17662;SDS011;8950;56.892;15.090;2022-11-10T12:11:49;7.93;;;2.55;;
17662;SDS011;8950;56.892;15.090;2022-11-10T12:14:22;8.30;;;2.70;;
17662;SDS011;8950;56.892;15.090;2022-11-10T12:16:54;8.93;;;2.88;;
17662;SDS011;8950;56.892;15.090;2022-11-10T12:19:28;9.40;;;2.40;;
17662;SDS011;8950;56.892;15.090;2022-11-10T12:21:56;7.78;;;2.90;;
17662;SDS011;8950;56.892;15.090;2022-11-10T12:24:37;8.70;;;2.60;;
17662;SDS011;8950;56.892;15.090;2022-11-10T12:27:09;8.68;;;2.40;;
17662;SDS011;8950;56.892;15.090;2022-11-10T12:29:38;8.40;;;3.03;;
17662;SDS011;8950;56.892;15.090;2022-11-10T12:32:10;7.45;;;2.85;;
17662;SDS011;8950;56.892;15.090;2022-11-10T12:34:40;7.35;;;2.45;;
17662;SDS011;8950;56.892;15.090;2022-11-10T12:37:10;9.20;;;3.05;;
17662;SDS011;8950;56.892;15.090;2022-11-10T12:39:40;7.43;;;2.65;;
17662;SDS011;8950;56.892;15.090;2022-11-10T12:42:11;7.72;;;2.63;;
17662;SDS011;8950;56.892;15.090;2022-11-10T12:44:42;11.27;;;2.90;;
17662;SDS011;8950;56.892;15.090;2022-11-10T12:47:14;9.23;;;2.63;;
17662;SDS011;8950;56.892;15.090;2022-11-10T12:49:44;9.05;;;2.53;;
17662;SDS011;8950;56.892;15.090;2022-11-10T12:52:13;8.60;;;2.40;;
17662;SDS011;8950;56.892;15.090;2022-11-10T12:54:43;6.72;;;2.55;;
17662;SDS011;8950;56.892;15.090;2022-11-10T12:57:10;6.68;;;2.88;;
17662;SDS011;8950;56.892;15.090;2022-11-10T12:59:37;10.73;;;2.60;;
17662;SDS011;8950;56.892;15.090;2022-11-10T13:02:05;7.97;;;2.60;;
17662;SDS011;8950;56.892;15.090;2022-11-10T13:04:42;7.70;;;2.80;;
17662;SDS011;8950;56.892;15.090;2022-11-10T13:07:08;5.93;;;2.60;;
17662;SDS011;8950;56.892;15.090;2022-11-10T13:09:36;10.80;;;2.90;;
17662;SDS011;8950;56.892;15.090;2022-11-10T13:12:05;7.28;;;2.38;;
17662;SDS011;8950;56.892;15.090;2022-11-10T13:14:32;6.90;;;2.78;;
17662;SDS011;8950;56.892;15.090;2022-11-10T13:16:58;7.93;;;2.50;;
17662;SDS011;8950;56.892;15.090;2022-11-10T13:22:11;6.07;;;2.28;;
17662;SDS011;8950;56.892;15.090;2022-11-10T13:24:53;7.53;;;2.72;;
17662;SDS011;8950;56.892;15.090;2022-11-10T13:27:50;8.65;;;2.60;;
17662;SDS011;8950;56.892;15.090;2022-11-10T13:35:52;6.97;;;2.33;;
17662;SDS011;8950;56.892;15.090;2022-11-10T13:38:32;10.52;;;2.83;;
17662;SDS011;8950;56.892;15.090;2022-11-10T13:41:11;6.68;;;2.28;;
17662;SDS011;8950;56.892;15.090;2022-11-10T13:43:45;9.98;;;2.70;;
17662;SDS011;8950;56.892;15.090;2022-11-10T13:46:12;5.53;;;2.25;;
17662;SDS011;8950;56.892;15.090;2022-11-10T13:48:44;8.32;;;2.60;;
17662;SDS011;8950;56.892;15.090;2022-11-10T13:51:16;7.03;;;2.47;;
17662;SDS011;8950;56.892;15.090;2022-11-10T13:53:52;5.15;;;2.53;;
17662;SDS011;8950;56.892;15.090;2022-11-10T13:56:23;9.32;;;2.60;;
17662;SDS011;8950;56.892;15.090;2022-11-10T13:58:53;7.82;;;2.70;;
17662;SDS011;8950;56.892;15.090;2022-11-10T14:01:24;6.65;;;2.80;;
17662;SDS011;8950;56.892;15.090;2022-11-10T14:03:58;7.97;;;2.30;;
17662;SDS011;8950;56.892;15.090;2022-11-10T14:06:26;9.48;;;2.70;;
17662;SDS011;8950;56.892;15.090;2022-11-10T14:08:55;8.13;;;2.50;;
17662;SDS011;8950;56.892;15.090;2022-11-10T14:11:26;6.43;;;2.40;;
17662;SDS011;8950;56.892;15.090;2022-11-10T14:13:56;6.68;;;2.58;;
17662;SDS011;8950;56.892;15.090;2022-11-10T14:16:24;7.85;;;2.55;;
17662;SDS011;8950;56.892;15.090;2022-11-10T14:18:54;9.07;;;2.58;;
17662;SDS011;8950;56.892;15.090;2022-11-10T14:21:24;6.13;;;2.35;;
17662;SDS011;8950;56.892;15.090;2022-11-10T14:23:52;9.50;;;2.58;;
17662;SDS011;8950;56.892;15.090;2022-11-10T14:26:23;9.15;;;2.90;;
17662;SDS011;8950;56.892;15.090;2022-11-10T14:28:50;7.85;;;2.83;;
17662;SDS011;8950;56.892;15.090;2022-11-10T14:31:18;6.85;;;2.58;;
17662;SDS011;8950;56.892;15.090;2022-11-10T14:33:51;7.95;;;3.05;;
17662;SDS011;8950;56.892;15.090;2022-11-10T14:36:18;5.85;;;2.22;;
17662;SDS011;8950;56.892;15.090;2022-11-10T14:38:44;8.02;;;2.60;;
17662;SDS011;8950;56.892;15.090;2022-11-10T14:41:13;7.80;;;2.40;;
17662;SDS011;8950;56.892;15.090;2022-11-10T14:43:42;7.75;;;2.42;;
17662;SDS011;8950;56.892;15.090;2022-11-10T14:46:12;5.88;;;2.20;;
17662;SDS011;8950;56.892;15.090;2022-11-10T14:48:39;8.75;;;2.88;;
17662;SDS011;8950;56.892;15.090;2022-11-10T14:51:06;9.48;;;2.30;;
17662;SDS011;8950;56.892;15.090;2022-11-10T14:53:34;7.05;;;2.83;;
17662;SDS011;8950;56.892;15.090;2022-11-10T14:56:01;5.53;;;2.30;;
17662;SDS011;8950;56.892;15.090;2022-11-10T14:58:30;8.68;;;2.63;;
17662;SDS011;8950;56.892;15.090;2022-11-10T15:00:58;7.50;;;2.72;;
17662;SDS011;8950;56.892;15.090;2022-11-10T15:03:29;7.50;;;2.60;;
17662;SDS011;8950;56.892;15.090;2022-11-10T15:05:58;7.97;;;2.60;;
17662;SDS011;8950;56.892;15.090;2022-11-10T15:08:24;7.07;;;2.58;;